sensor_id;sensor_type;location;lat;lon;timestamp;P1;durP1;ratioP1;P2;durP2;ratioP2
59054;SDS011;44845;51.444;7.460;2023-06-14T00:02:02;4.30;;;3.50;;
59054;SDS011;44845;51.444;7.460;2023-06-14T00:04:27;3.72;;;3.33;;
59054;SDS011;44845;51.444;7.460;2023-06-14T00:06:53;5.95;;;3.38;;
59054;SDS011;44845;51.444;7.460;2023-06-14T00:09:21;4.97;;;3.45;;
59054;SDS011;44845;51.444;7.460;2023-06-14T00:11:47;5.90;;;3.40;;
59054;SDS011;44845;51.444;7.460;2023-06-14T00:14:12;6.10;;;3.20;;
59054;SDS011;44845;51.444;7.460;2023-06-14T00:16:39;5.60;;;3.45;;
59054;SDS011;44845;51.444;7.460;2023-06-14T00:19:07;5.65;;;3.50;;
59054;SDS011;44845;51.444;7.460;2023-06-14T00:21:35;7.05;;;3.65;;
59054;SDS011;44845;51.444;7.460;2023-06-14T00:24:01;6.43;;;3.70;;
59054;SDS011;44845;51.444;7.460;2023-06-14T00:26:27;5.10;;;3.78;;
59054;SDS011;44845;51.444;7.460;2023-06-14T00:28:53;5.82;;;3.38;;
59054;SDS011;44845;51.444;7.460;2023-06-14T00:31:19;6.28;;;3.50;;
59054;SDS011;44845;51.444;7.460;2023-06-14T00:33:44;3.85;;;3.03;;
59054;SDS011;44845;51.444;7.460;2023-06-14T00:36:10;3.92;;;3.20;;
59054;SDS011;44845;51.444;7.460;2023-06-14T00:38:35;4.32;;;3.92;;
59054;SDS011;44845;51.444;7.460;2023-06-14T00:41:00;6.55;;;3.90;;
59054;SDS011;44845;51.444;7.460;2023-06-14T00:43:26;7.30;;;3.50;;
59054;SDS011;44845;51.444;7.460;2023-06-14T00:45:51;4.75;;;3.50;;
59054;SDS011;44845;51.444;7.460;2023-06-14T00:48:17;5.00;;;3.38;;
59054;SDS011;44845;51.444;7.460;2023-06-14T00:50:43;4.78;;;3.50;;
59054;SDS011;44845;51.444;7.460;2023-06-14T00:53:13;6.15;;;3.67;;
59054;SDS011;44845;51.444;7.460;2023-06-14T00:55:40;4.65;;;3.55;;
59054;SDS011;44845;51.444;7.460;2023-06-14T00:58:06;5.22;;;3.10;;
59054;SDS011;44845;51.444;7.460;2023-06-14T01:00:31;4.07;;;3.47;;
59054;SDS011;44845;51.444;7.460;2023-06-14T01:02:56;11.88;;;3.63;;
59054;SDS011;44845;51.444;7.460;2023-06-14T01:05:22;4.70;;;3.50;;
59054;SDS011;44845;51.444;7.460;2023-06-14T01:15:40;5.70;;;3.45;;
59054;SDS011;44845;51.444;7.460;2023-06-14T01:18:08;5.18;;;3.53;;
59054;SDS011;44845;51.444;7.460;2023-06-14T01:20:41;8.03;;;3.60;;
59054;SDS011;44845;51.444;7.460;2023-06-14T01:23:09;5.18;;;3.42;;
59054;SDS011;44845;51.444;7.460;2023-06-14T01:25:37;3.97;;;3.30;;
59054;SDS011;44845;51.444;7.460;2023-06-14T01:28:04;6.07;;;4.00;;
59054;SDS011;44845;51.444;7.460;2023-06-14T01:30:36;3.63;;;2.95;;
59054;SDS011;44845;51.444;7.460;2023-06-14T01:33:03;5.53;;;3.83;;
59054;SDS011;44845;51.444;7.460;2023-06-14T01:35:30;7.40;;;3.30;;
59054;SDS011;44845;51.444;7.460;2023-06-14T01:37:56;4.35;;;3.60;;
59054;SDS011;44845;51.444;7.460;2023-06-14T01:40:23;7.30;;;3.85;;
59054;SDS011;44845;51.444;7.460;2023-06-14T01:42:49;8.70;;;4.07;;
59054;SDS011;44845;51.444;7.460;2023-06-14T01:45:15;5.70;;;3.67;;
59054;SDS011;44845;51.444;7.460;2023-06-14T01:47:42;4.90;;;3.42;;
59054;SDS011;44845;51.444;7.460;2023-06-14T01:50:09;7.43;;;3.47;;
59054;SDS011;44845;51.444;7.460;2023-06-14T01:52:36;7.78;;;4.05;;
59054;SDS011;44845;51.444;7.460;2023-06-14T01:55:02;5.32;;;3.92;;
59054;SDS011;44845;51.444;7.460;2023-06-14T01:57:27;5.35;;;3.83;;
59054;SDS011;44845;51.444;7.460;2023-06-14T01:59:53;4.95;;;3.83;;
59054;SDS011;44845;51.444;7.460;2023-06-14T02:02:18;5.35;;;3.70;;
59054;SDS011;44845;51.444;7.460;2023-06-14T02:04:44;4.97;;;3.30;;
59054;SDS011;44845;51.444;7.460;2023-06-14T02:07:11;8.40;;;3.53;;
59054;SDS011;44845;51.444;7.460;2023-06-14T02:09:36;6.13;;;3.50;;
59054;SDS011;44845;51.444;7.460;2023-06-14T02:12:02;4.95;;;3.78;;
59054;SDS011;44845;51.444;7.460;2023-06-14T02:14:27;3.95;;;3.20;;
59054;SDS011;44845;51.444;7.460;2023-06-14T02:16:53;3.90;;;3.35;;
59054;SDS011;44845;51.444;7.460;2023-06-14T02:19:18;4.95;;;3.67;;
59054;SDS011;44845;51.444;7.460;2023-06-14T02:21:45;5.15;;;3.53;;
59054;SDS011;44845;51.444;7.460;2023-06-14T02:24:10;5.13;;;3.75;;
59054;SDS011;44845;51.444;7.460;2023-06-14T02:26:36;6.38;;;4.13;;
59054;SDS011;44845;51.444;7.460;2023-06-14T02:29:06;5.88;;;3.63;;
59054;SDS011;44845;51.444;7.460;2023-06-14T02:31:33;5.60;;;3.85;;
59054;SDS011;44845;51.444;7.460;2023-06-14T02:34:00;4.22;;;3.67;;
59054;SDS011;44845;51.444;7.460;2023-06-14T02:36:25;6.03;;;3.97;;
59054;SDS011;44845;51.444;7.460;2023-06-14T02:38:51;7.10;;;3.97;;
59054;SDS011;44845;51.444;7.460;2023-06-14T02:41:19;4.75;;;3.63;;
59054;SDS011;44845;51.444;7.460;2023-06-14T02:43:44;5.47;;;3.78;;
59054;SDS011;44845;51.444;7.460;2023-06-14T02:46:09;3.85;;;3.45;;
59054;SDS011;44845;51.444;7.460;2023-06-14T02:48:36;6.50;;;3.83;;
59054;SDS011;44845;51.444;7.460;2023-06-14T02:51:01;3.97;;;3.58;;
59054;SDS011;44845;51.444;7.460;2023-06-14T02:53:26;6.43;;;3.65;;
59054;SDS011;44845;51.444;7.460;2023-06-14T02:55:52;5.30;;;3.22;;
59054;SDS011;44845;51.444;7.460;2023-06-14T02:58:17;6.95;;;3.72;;
59054;SDS011;44845;51.444;7.460;2023-06-14T03:00:43;5.82;;;4.07;;
59054;SDS011;44845;51.444;7.460;2023-06-14T03:03:09;7.78;;;3.72;;
59054;SDS011;44845;51.444;7.460;2023-06-14T03:05:40;5.82;;;3.65;;
59054;SDS011;44845;51.444;7.460;2023-06-14T03:08:11;4.60;;;3.28;;
59054;SDS011;44845;51.444;7.460;2023-06-14T03:10:41;4.75;;;3.30;;
59054;SDS011;44845;51.444;7.460;2023-06-14T03:13:11;4.68;;;3.38;;
59054;SDS011;44845;51.444;7.460;2023-06-14T03:15:37;3.90;;;3.38;;
59054;SDS011;44845;51.444;7.460;2023-06-14T03:18:03;5.60;;;3.90;;
59054;SDS011;44845;51.444;7.460;2023-06-14T03:20:28;5.15;;;3.63;;
59054;SDS011;44845;51.444;7.460;2023-06-14T03:22:57;5.47;;;3.58;;
59054;SDS011;44845;51.444;7.460;2023-06-14T03:25:24;5.88;;;3.78;;
59054;SDS011;44845;51.444;7.460;2023-06-14T03:27:50;6.15;;;3.63;;
59054;SDS011;44845;51.444;7.460;2023-06-14T03:30:16;3.83;;;3.28;;
59054;SDS011;44845;51.444;7.460;2023-06-14T03:32:41;4.18;;;3.55;;
59054;SDS011;44845;51.444;7.460;2023-06-14T03:35:07;6.40;;;3.50;;
59054;SDS011;44845;51.444;7.460;2023-06-14T03:37:32;5.35;;;3.80;;
59054;SDS011;44845;51.444;7.460;2023-06-14T03:39:58;4.10;;;3.28;;
59054;SDS011;44845;51.444;7.460;2023-06-14T03:42:23;6.53;;;3.45;;
59054;SDS011;44845;51.444;7.460;2023-06-14T03:44:48;10.38;;;3.60;;
59054;SDS011;44845;51.444;7.460;2023-06-14T03:47:14;4.05;;;3.63;;
59054;SDS011;44845;51.444;7.460;2023-06-14T03:49:39;4.32;;;3.80;;
59054;SDS011;44845;51.444;7.460;2023-06-14T03:52:05;8.00;;;3.28;;
59054;SDS011;44845;51.444;7.460;2023-06-14T03:54:31;4.85;;;3.40;;
59054;SDS011;44845;51.444;7.460;2023-06-14T03:56:57;7.15;;;3.58;;
59054;SDS011;44845;51.444;7.460;2023-06-14T03:59:23;4.35;;;2.80;;
59054;SDS011;44845;51.444;7.460;2023-06-14T04:01:48;5.68;;;3.00;;
59054;SDS011;44845;51.444;7.460;2023-06-14T04:04:14;4.97;;;3.00;;
59054;SDS011;44845;51.444;7.460;2023-06-14T04:06:41;7.97;;;2.95;;
59054;SDS011;44845;51.444;7.460;2023-06-14T04:09:07;4.85;;;3.08;;
59054;SDS011;44845;51.444;7.460;2023-06-14T04:11:33;3.80;;;2.80;;
59054;SDS011;44845;51.444;7.460;2023-06-14T04:13:58;4.28;;;2.75;;
59054;SDS011;44845;51.444;7.460;2023-06-14T04:16:24;7.72;;;2.75;;
59054;SDS011;44845;51.444;7.460;2023-06-14T04:18:49;3.30;;;2.60;;
59054;SDS011;44845;51.444;7.460;2023-06-14T04:21:17;4.28;;;2.95;;
59054;SDS011;44845;51.444;7.460;2023-06-14T04:23:43;4.05;;;3.08;;
59054;SDS011;44845;51.444;7.460;2023-06-14T04:26:09;6.18;;;2.67;;
59054;SDS011;44845;51.444;7.460;2023-06-14T04:28:35;3.10;;;2.47;;
59054;SDS011;44845;51.444;7.460;2023-06-14T04:31:05;9.60;;;3.63;;
59054;SDS011;44845;51.444;7.460;2023-06-14T04:33:35;8.30;;;3.53;;
59054;SDS011;44845;51.444;7.460;2023-06-14T04:38:34;4.95;;;2.92;;
59054;SDS011;44845;51.444;7.460;2023-06-14T04:40:59;7.35;;;2.83;;
59054;SDS011;44845;51.444;7.460;2023-06-14T04:43:27;5.68;;;2.60;;
59054;SDS011;44845;51.444;7.460;2023-06-14T04:45:52;6.05;;;2.55;;
59054;SDS011;44845;51.444;7.460;2023-06-14T04:48:20;5.97;;;2.58;;
59054;SDS011;44845;51.444;7.460;2023-06-14T04:50:46;8.27;;;2.72;;
59054;SDS011;44845;51.444;7.460;2023-06-14T04:53:11;5.68;;;2.95;;
59054;SDS011;44845;51.444;7.460;2023-06-14T04:55:37;5.63;;;2.72;;
59054;SDS011;44845;51.444;7.460;2023-06-14T04:58:03;4.93;;;2.90;;
59054;SDS011;44845;51.444;7.460;2023-06-14T05:00:28;3.92;;;2.88;;
59054;SDS011;44845;51.444;7.460;2023-06-14T05:02:55;9.15;;;2.65;;
59054;SDS011;44845;51.444;7.460;2023-06-14T05:05:21;6.47;;;2.70;;
59054;SDS011;44845;51.444;7.460;2023-06-14T05:07:47;8.05;;;2.72;;
59054;SDS011;44845;51.444;7.460;2023-06-14T05:10:12;6.47;;;2.53;;
59054;SDS011;44845;51.444;7.460;2023-06-14T05:12:38;4.13;;;2.70;;
59054;SDS011;44845;51.444;7.460;2023-06-14T05:15:03;4.68;;;2.60;;
59054;SDS011;44845;51.444;7.460;2023-06-14T05:17:29;6.90;;;2.70;;
59054;SDS011;44845;51.444;7.460;2023-06-14T05:19:55;4.30;;;3.03;;
59054;SDS011;44845;51.444;7.460;2023-06-14T05:22:21;6.85;;;3.13;;
59054;SDS011;44845;51.444;7.460;2023-06-14T05:24:47;4.57;;;2.83;;
59054;SDS011;44845;51.444;7.460;2023-06-14T05:27:13;5.55;;;2.90;;
59054;SDS011;44845;51.444;7.460;2023-06-14T05:29:38;4.65;;;3.03;;
59054;SDS011;44845;51.444;7.460;2023-06-14T05:32:04;7.03;;;3.20;;
59054;SDS011;44845;51.444;7.460;2023-06-14T05:34:31;4.05;;;2.72;;
59054;SDS011;44845;51.444;7.460;2023-06-14T05:36:56;4.70;;;2.72;;
59054;SDS011;44845;51.444;7.460;2023-06-14T05:39:21;5.00;;;2.55;;
59054;SDS011;44845;51.444;7.460;2023-06-14T05:41:47;6.88;;;2.90;;
59054;SDS011;44845;51.444;7.460;2023-06-14T05:44:12;4.50;;;2.55;;
59054;SDS011;44845;51.444;7.460;2023-06-14T05:46:38;10.13;;;2.60;;
59054;SDS011;44845;51.444;7.460;2023-06-14T05:49:04;4.63;;;2.47;;
59054;SDS011;44845;51.444;7.460;2023-06-14T05:51:30;5.22;;;2.70;;
59054;SDS011;44845;51.444;7.460;2023-06-14T05:53:55;6.40;;;2.38;;
59054;SDS011;44845;51.444;7.460;2023-06-14T05:56:21;3.20;;;2.22;;
59054;SDS011;44845;51.444;7.460;2023-06-14T05:58:46;4.70;;;2.10;;
59054;SDS011;44845;51.444;7.460;2023-06-14T06:01:12;4.05;;;2.45;;
59054;SDS011;44845;51.444;7.460;2023-06-14T06:03:38;3.78;;;2.30;;
59054;SDS011;44845;51.444;7.460;2023-06-14T06:06:03;5.75;;;2.20;;
59054;SDS011;44845;51.444;7.460;2023-06-14T06:08:29;4.32;;;2.20;;
59054;SDS011;44845;51.444;7.460;2023-06-14T06:10:55;5.70;;;2.40;;
59054;SDS011;44845;51.444;7.460;2023-06-14T06:13:21;2.53;;;1.90;;
59054;SDS011;44845;51.444;7.460;2023-06-14T06:15:46;7.55;;;2.60;;
59054;SDS011;44845;51.444;7.460;2023-06-14T06:18:12;3.88;;;2.03;;
59054;SDS011;44845;51.444;7.460;2023-06-14T06:20:37;4.38;;;2.15;;
59054;SDS011;44845;51.444;7.460;2023-06-14T06:23:02;5.68;;;1.80;;
59054;SDS011;44845;51.444;7.460;2023-06-14T06:25:28;4.75;;;1.80;;
59054;SDS011;44845;51.444;7.460;2023-06-14T06:27:54;3.90;;;1.80;;
59054;SDS011;44845;51.444;7.460;2023-06-14T06:30:21;6.15;;;1.85;;
59054;SDS011;44845;51.444;7.460;2023-06-14T06:32:46;6.00;;;1.80;;
59054;SDS011;44845;51.444;7.460;2023-06-14T06:35:12;9.05;;;1.90;;
59054;SDS011;44845;51.444;7.460;2023-06-14T06:37:38;3.38;;;1.80;;
59054;SDS011;44845;51.444;7.460;2023-06-14T06:40:04;4.20;;;1.83;;
59054;SDS011;44845;51.444;7.460;2023-06-14T06:42:31;2.80;;;1.70;;
59054;SDS011;44845;51.444;7.460;2023-06-14T06:44:57;5.68;;;1.52;;
59054;SDS011;44845;51.444;7.460;2023-06-14T06:47:22;2.50;;;1.40;;
59054;SDS011;44845;51.444;7.460;2023-06-14T06:49:47;4.30;;;1.90;;
59054;SDS011;44845;51.444;7.460;2023-06-14T06:52:13;6.68;;;1.50;;
59054;SDS011;44845;51.444;7.460;2023-06-14T06:54:39;2.55;;;1.20;;
59054;SDS011;44845;51.444;7.460;2023-06-14T06:57:04;3.03;;;1.65;;
59054;SDS011;44845;51.444;7.460;2023-06-14T06:59:31;2.28;;;1.50;;
59054;SDS011;44845;51.444;7.460;2023-06-14T07:01:56;2.22;;;1.55;;
59054;SDS011;44845;51.444;7.460;2023-06-14T07:04:21;3.58;;;1.88;;
59054;SDS011;44845;51.444;7.460;2023-06-14T07:06:47;4.07;;;1.95;;
59054;SDS011;44845;51.444;7.460;2023-06-14T07:09:12;2.88;;;1.77;;
59054;SDS011;44845;51.444;7.460;2023-06-14T07:11:39;2.03;;;1.48;;
59054;SDS011;44845;51.444;7.460;2023-06-14T07:14:05;5.13;;;1.75;;
59054;SDS011;44845;51.444;7.460;2023-06-14T07:16:31;2.35;;;1.45;;
59054;SDS011;44845;51.444;7.460;2023-06-14T07:18:57;2.97;;;1.65;;
59054;SDS011;44845;51.444;7.460;2023-06-14T07:21:22;4.97;;;1.70;;
59054;SDS011;44845;51.444;7.460;2023-06-14T07:23:47;2.72;;;1.50;;
59054;SDS011;44845;51.444;7.460;2023-06-14T07:26:15;3.60;;;1.30;;
59054;SDS011;44845;51.444;7.460;2023-06-14T07:28:40;3.42;;;1.52;;
59054;SDS011;44845;51.444;7.460;2023-06-14T07:31:09;11.82;;;1.83;;
59054;SDS011;44845;51.444;7.460;2023-06-14T07:33:35;3.55;;;1.50;;
59054;SDS011;44845;51.444;7.460;2023-06-14T07:36:00;4.05;;;1.35;;
59054;SDS011;44845;51.444;7.460;2023-06-14T07:38:26;7.25;;;1.55;;
59054;SDS011;44845;51.444;7.460;2023-06-14T07:40:51;7.97;;;1.50;;
59054;SDS011;44845;51.444;7.460;2023-06-14T07:43:17;6.70;;;1.55;;
59054;SDS011;44845;51.444;7.460;2023-06-14T07:45:42;3.28;;;1.67;;
59054;SDS011;44845;51.444;7.460;2023-06-14T07:48:08;2.80;;;1.63;;
59054;SDS011;44845;51.444;7.460;2023-06-14T07:50:34;3.72;;;1.70;;
59054;SDS011;44845;51.444;7.460;2023-06-14T07:53:00;4.25;;;1.50;;
59054;SDS011;44845;51.444;7.460;2023-06-14T07:55:25;3.63;;;1.27;;
59054;SDS011;44845;51.444;7.460;2023-06-14T07:57:51;4.43;;;1.15;;
59054;SDS011;44845;51.444;7.460;2023-06-14T08:00:17;3.50;;;1.10;;
59054;SDS011;44845;51.444;7.460;2023-06-14T08:02:43;2.30;;;1.30;;
59054;SDS011;44845;51.444;7.460;2023-06-14T08:05:09;2.63;;;1.25;;
59054;SDS011;44845;51.444;7.460;2023-06-14T08:07:39;3.55;;;1.25;;
59054;SDS011;44845;51.444;7.460;2023-06-14T08:10:05;3.90;;;1.10;;
59054;SDS011;44845;51.444;7.460;2023-06-14T08:12:32;2.60;;;1.42;;
59054;SDS011;44845;51.444;7.460;2023-06-14T08:14:58;6.82;;;1.27;;
59054;SDS011;44845;51.444;7.460;2023-06-14T08:17:24;1.42;;;1.00;;
59054;SDS011;44845;51.444;7.460;2023-06-14T08:19:49;1.10;;;1.00;;
59054;SDS011;44845;51.444;7.460;2023-06-14T08:22:15;3.05;;;1.48;;
59054;SDS011;44845;51.444;7.460;2023-06-14T08:24:41;2.10;;;1.35;;
59054;SDS011;44845;51.444;7.460;2023-06-14T08:27:07;5.45;;;1.10;;
59054;SDS011;44845;51.444;7.460;2023-06-14T08:29:32;1.65;;;1.00;;
59054;SDS011;44845;51.444;7.460;2023-06-14T08:31:58;1.98;;;1.30;;
59054;SDS011;44845;51.444;7.460;2023-06-14T08:34:23;4.05;;;1.30;;
59054;SDS011;44845;51.444;7.460;2023-06-14T08:36:51;1.52;;;1.00;;
59054;SDS011;44845;51.444;7.460;2023-06-14T08:39:17;1.95;;;0.82;;
59054;SDS011;44845;51.444;7.460;2023-06-14T08:41:45;1.48;;;0.80;;
59054;SDS011;44845;51.444;7.460;2023-06-14T08:44:11;2.03;;;0.70;;
59054;SDS011;44845;51.444;7.460;2023-06-14T08:46:37;0.60;;;0.55;;
59054;SDS011;44845;51.444;7.460;2023-06-14T08:49:03;1.80;;;0.90;;
59054;SDS011;44845;51.444;7.460;2023-06-14T08:51:31;2.67;;;0.85;;
59054;SDS011;44845;51.444;7.460;2023-06-14T08:53:59;1.55;;;0.63;;
59054;SDS011;44845;51.444;7.460;2023-06-14T08:56:26;1.50;;;0.85;;
59054;SDS011;44845;51.444;7.460;2023-06-14T08:58:52;1.77;;;0.90;;
59054;SDS011;44845;51.444;7.460;2023-06-14T09:01:19;1.10;;;0.85;;
59054;SDS011;44845;51.444;7.460;2023-06-14T09:03:47;2.13;;;0.88;;
59054;SDS011;44845;51.444;7.460;2023-06-14T09:06:13;3.10;;;1.00;;
59054;SDS011;44845;51.444;7.460;2023-06-14T09:08:41;5.00;;;0.80;;
59054;SDS011;44845;51.444;7.460;2023-06-14T09:11:08;1.42;;;0.75;;
59054;SDS011;44845;51.444;7.460;2023-06-14T09:13:35;2.00;;;0.95;;
59054;SDS011;44845;51.444;7.460;2023-06-14T09:16:00;3.65;;;0.80;;
59054;SDS011;44845;51.444;7.460;2023-06-14T09:18:38;2.17;;;1.20;;
59054;SDS011;44845;51.444;7.460;2023-06-14T09:21:13;2.40;;;0.70;;
59054;SDS011;44845;51.444;7.460;2023-06-14T09:23:40;1.13;;;0.80;;
59054;SDS011;44845;51.444;7.460;2023-06-14T09:26:17;2.25;;;1.33;;
59054;SDS011;44845;51.444;7.460;2023-06-14T09:28:48;1.20;;;0.93;;
59054;SDS011;44845;51.444;7.460;2023-06-14T09:31:16;2.70;;;1.25;;
59054;SDS011;44845;51.444;7.460;2023-06-14T09:33:43;4.28;;;0.90;;
59054;SDS011;44845;51.444;7.460;2023-06-14T09:36:16;1.95;;;0.80;;
59054;SDS011;44845;51.444;7.460;2023-06-14T09:38:51;3.40;;;0.98;;
59054;SDS011;44845;51.444;7.460;2023-06-14T09:41:21;4.60;;;1.05;;
59054;SDS011;44845;51.444;7.460;2023-06-14T09:43:56;3.00;;;1.23;;
59054;SDS011;44845;51.444;7.460;2023-06-14T09:46:25;2.22;;;1.05;;
59054;SDS011;44845;51.444;7.460;2023-06-14T09:48:52;1.73;;;1.20;;
59054;SDS011;44845;51.444;7.460;2023-06-14T09:51:17;5.45;;;0.80;;
59054;SDS011;44845;51.444;7.460;2023-06-14T09:53:45;0.82;;;0.82;;
59054;SDS011;44845;51.444;7.460;2023-06-14T09:56:13;2.70;;;0.80;;
59054;SDS011;44845;51.444;7.460;2023-06-14T09:58:45;1.00;;;0.90;;
59054;SDS011;44845;51.444;7.460;2023-06-14T10:01:10;0.80;;;0.60;;
59054;SDS011;44845;51.444;7.460;2023-06-14T10:03:38;1.63;;;0.90;;
59054;SDS011;44845;51.444;7.460;2023-06-14T10:06:04;0.70;;;0.70;;
59054;SDS011;44845;51.444;7.460;2023-06-14T10:08:33;1.75;;;1.00;;
59054;SDS011;44845;51.444;7.460;2023-06-14T10:11:02;1.23;;;0.82;;
59054;SDS011;44845;51.444;7.460;2023-06-14T10:13:28;3.50;;;0.85;;
59054;SDS011;44845;51.444;7.460;2023-06-14T10:18:53;1.33;;;0.90;;
59054;SDS011;44845;51.444;7.460;2023-06-14T10:21:41;1.05;;;0.90;;
59054;SDS011;44845;51.444;7.460;2023-06-14T10:24:12;0.80;;;0.60;;
59054;SDS011;44845;51.444;7.460;2023-06-14T10:26:53;0.80;;;0.70;;
59054;SDS011;44845;51.444;7.460;2023-06-14T10:29:21;3.63;;;0.60;;
59054;SDS011;44845;51.444;7.460;2023-06-14T10:31:47;2.17;;;0.73;;
59054;SDS011;44845;51.444;7.460;2023-06-14T10:34:24;0.80;;;0.80;;
59054;SDS011;44845;51.444;7.460;2023-06-14T10:37:06;3.67;;;0.90;;
59054;SDS011;44845;51.444;7.460;2023-06-14T10:39:40;2.55;;;0.80;;
59054;SDS011;44845;51.444;7.460;2023-06-14T10:42:07;1.98;;;0.77;;
59054;SDS011;44845;51.444;7.460;2023-06-14T10:44:33;0.88;;;0.60;;
59054;SDS011;44845;51.444;7.460;2023-06-14T10:47:05;0.65;;;0.65;;
59054;SDS011;44845;51.444;7.460;2023-06-14T10:49:45;1.50;;;0.80;;
59054;SDS011;44845;51.444;7.460;2023-06-14T10:52:17;0.75;;;0.70;;
59054;SDS011;44845;51.444;7.460;2023-06-14T10:54:56;6.78;;;0.80;;
59054;SDS011;44845;51.444;7.460;2023-06-14T10:57:26;1.20;;;0.85;;
59054;SDS011;44845;51.444;7.460;2023-06-14T10:59:52;2.47;;;1.02;;
59054;SDS011;44845;51.444;7.460;2023-06-14T11:02:41;2.53;;;0.93;;
59054;SDS011;44845;51.444;7.460;2023-06-14T11:05:16;3.00;;;0.88;;
59054;SDS011;44845;51.444;7.460;2023-06-14T11:10:45;1.25;;;1.15;;
59054;SDS011;44845;51.444;7.460;2023-06-14T11:13:10;1.70;;;1.00;;
59054;SDS011;44845;51.444;7.460;2023-06-14T11:15:36;3.10;;;1.30;;
59054;SDS011;44845;51.444;7.460;2023-06-14T11:18:03;1.27;;;1.17;;
59054;SDS011;44845;51.444;7.460;2023-06-14T11:20:30;1.45;;;1.00;;
59054;SDS011;44845;51.444;7.460;2023-06-14T11:22:56;1.52;;;1.08;;
59054;SDS011;44845;51.444;7.460;2023-06-14T11:25:22;1.65;;;1.00;;
59054;SDS011;44845;51.444;7.460;2023-06-14T11:27:51;2.38;;;1.20;;
59054;SDS011;44845;51.444;7.460;2023-06-14T11:30:16;5.47;;;1.30;;
59054;SDS011;44845;51.444;7.460;2023-06-14T11:32:42;2.50;;;1.20;;
59054;SDS011;44845;51.444;7.460;2023-06-14T11:35:07;4.50;;;1.13;;
59054;SDS011;44845;51.444;7.460;2023-06-14T11:37:35;3.65;;;1.40;;
59054;SDS011;44845;51.444;7.460;2023-06-14T11:40:02;2.25;;;1.35;;
59054;SDS011;44845;51.444;7.460;2023-06-14T11:42:31;10.27;;;1.42;;
59054;SDS011;44845;51.444;7.460;2023-06-14T11:44:56;6.25;;;1.13;;
59054;SDS011;44845;51.444;7.460;2023-06-14T11:47:22;1.98;;;1.25;;
59054;SDS011;44845;51.444;7.460;2023-06-14T11:49:48;5.80;;;1.38;;
59054;SDS011;44845;51.444;7.460;2023-06-14T11:52:13;2.35;;;1.30;;
59054;SDS011;44845;51.444;7.460;2023-06-14T11:54:39;5.03;;;1.33;;
59054;SDS011;44845;51.444;7.460;2023-06-14T11:57:06;1.77;;;1.30;;
59054;SDS011;44845;51.444;7.460;2023-06-14T11:59:40;6.88;;;1.40;;
59054;SDS011;44845;51.444;7.460;2023-06-14T12:02:05;1.83;;;1.20;;
59054;SDS011;44845;51.444;7.460;2023-06-14T12:04:32;3.47;;;1.40;;
59054;SDS011;44845;51.444;7.460;2023-06-14T12:07:07;5.93;;;1.30;;
59054;SDS011;44845;51.444;7.460;2023-06-14T12:09:40;3.03;;;1.50;;
59054;SDS011;44845;51.444;7.460;2023-06-14T12:12:09;2.55;;;1.05;;
59054;SDS011;44845;51.444;7.460;2023-06-14T12:14:35;1.63;;;1.20;;
59054;SDS011;44845;51.444;7.460;2023-06-14T12:17:04;1.77;;;1.60;;
59054;SDS011;44845;51.444;7.460;2023-06-14T12:19:31;3.53;;;1.30;;
59054;SDS011;44845;51.444;7.460;2023-06-14T12:21:59;2.45;;;1.30;;
59054;SDS011;44845;51.444;7.460;2023-06-14T12:24:29;5.63;;;1.30;;
59054;SDS011;44845;51.444;7.460;2023-06-14T12:26:54;2.97;;;1.50;;
59054;SDS011;44845;51.444;7.460;2023-06-14T12:29:23;2.60;;;1.45;;
59054;SDS011;44845;51.444;7.460;2023-06-14T12:31:49;2.95;;;1.20;;
59054;SDS011;44845;51.444;7.460;2023-06-14T12:34:14;5.18;;;1.50;;
59054;SDS011;44845;51.444;7.460;2023-06-14T12:36:40;1.58;;;1.40;;
59054;SDS011;44845;51.444;7.460;2023-06-14T12:39:09;3.50;;;1.20;;
59054;SDS011;44845;51.444;7.460;2023-06-14T12:41:34;5.30;;;1.40;;
59054;SDS011;44845;51.444;7.460;2023-06-14T12:43:59;2.58;;;1.40;;
59054;SDS011;44845;51.444;7.460;2023-06-14T12:46:29;1.30;;;1.10;;
59054;SDS011;44845;51.444;7.460;2023-06-14T12:48:56;3.42;;;1.45;;
59054;SDS011;44845;51.444;7.460;2023-06-14T12:51:21;1.98;;;1.30;;
59054;SDS011;44845;51.444;7.460;2023-06-14T12:53:47;3.25;;;1.20;;
59054;SDS011;44845;51.444;7.460;2023-06-14T12:56:13;1.48;;;1.17;;
59054;SDS011;44845;51.444;7.460;2023-06-14T12:58:39;4.82;;;1.25;;
59054;SDS011;44845;51.444;7.460;2023-06-14T13:01:04;3.88;;;1.20;;
59054;SDS011;44845;51.444;7.460;2023-06-14T13:03:30;1.95;;;1.40;;
59054;SDS011;44845;51.444;7.460;2023-06-14T13:05:55;6.63;;;1.85;;
59054;SDS011;44845;51.444;7.460;2023-06-14T13:08:21;2.38;;;1.35;;
59054;SDS011;44845;51.444;7.460;2023-06-14T13:10:47;3.63;;;1.48;;
59054;SDS011;44845;51.444;7.460;2023-06-14T13:13:12;2.92;;;1.48;;
59054;SDS011;44845;51.444;7.460;2023-06-14T13:15:38;2.97;;;1.20;;
59054;SDS011;44845;51.444;7.460;2023-06-14T13:18:04;2.58;;;1.42;;
59054;SDS011;44845;51.444;7.460;2023-06-14T13:20:30;1.95;;;1.30;;
59054;SDS011;44845;51.444;7.460;2023-06-14T13:22:56;4.60;;;1.30;;
59054;SDS011;44845;51.444;7.460;2023-06-14T13:25:22;2.70;;;1.33;;
59054;SDS011;44845;51.444;7.460;2023-06-14T13:27:47;2.72;;;1.45;;
59054;SDS011;44845;51.444;7.460;2023-06-14T13:30:13;5.28;;;1.50;;
59054;SDS011;44845;51.444;7.460;2023-06-14T13:32:38;1.38;;;1.27;;
59054;SDS011;44845;51.444;7.460;2023-06-14T13:35:04;5.95;;;1.55;;
59054;SDS011;44845;51.444;7.460;2023-06-14T13:37:29;8.63;;;1.45;;
59054;SDS011;44845;51.444;7.460;2023-06-14T13:39:55;2.38;;;1.60;;
59054;SDS011;44845;51.444;7.460;2023-06-14T13:42:20;5.32;;;1.50;;
59054;SDS011;44845;51.444;7.460;2023-06-14T13:44:46;2.50;;;1.50;;
59054;SDS011;44845;51.444;7.460;2023-06-14T13:47:11;1.73;;;1.52;;
59054;SDS011;44845;51.444;7.460;2023-06-14T13:49:37;2.20;;;1.20;;
59054;SDS011;44845;51.444;7.460;2023-06-14T13:52:02;3.10;;;1.52;;
59054;SDS011;44845;51.444;7.460;2023-06-14T13:54:28;2.22;;;1.42;;
59054;SDS011;44845;51.444;7.460;2023-06-14T13:56:53;3.58;;;1.40;;
59054;SDS011;44845;51.444;7.460;2023-06-14T13:59:19;3.00;;;1.63;;
59054;SDS011;44845;51.444;7.460;2023-06-14T14:01:45;3.03;;;1.45;;
59054;SDS011;44845;51.444;7.460;2023-06-14T14:04:10;1.45;;;1.35;;
59054;SDS011;44845;51.444;7.460;2023-06-14T14:06:36;2.60;;;1.65;;
59054;SDS011;44845;51.444;7.460;2023-06-14T14:09:01;3.08;;;1.52;;
59054;SDS011;44845;51.444;7.460;2023-06-14T14:11:27;5.47;;;1.50;;
59054;SDS011;44845;51.444;7.460;2023-06-14T14:13:53;5.25;;;1.50;;
59054;SDS011;44845;51.444;7.460;2023-06-14T14:16:18;3.97;;;1.50;;
59054;SDS011;44845;51.444;7.460;2023-06-14T14:18:45;3.65;;;1.55;;
59054;SDS011;44845;51.444;7.460;2023-06-14T14:21:11;6.80;;;1.80;;
59054;SDS011;44845;51.444;7.460;2023-06-14T14:23:36;5.32;;;1.60;;
59054;SDS011;44845;51.444;7.460;2023-06-14T14:26:01;3.72;;;1.35;;
59054;SDS011;44845;51.444;7.460;2023-06-14T14:28:29;2.05;;;1.50;;
59054;SDS011;44845;51.444;7.460;2023-06-14T14:30:55;2.85;;;1.40;;
59054;SDS011;44845;51.444;7.460;2023-06-14T14:33:20;4.22;;;1.48;;
59054;SDS011;44845;51.444;7.460;2023-06-14T14:35:46;2.65;;;1.60;;
59054;SDS011;44845;51.444;7.460;2023-06-14T14:38:12;2.90;;;1.55;;
59054;SDS011;44845;51.444;7.460;2023-06-14T14:40:39;4.05;;;1.60;;
59054;SDS011;44845;51.444;7.460;2023-06-14T14:43:05;1.95;;;1.30;;
59054;SDS011;44845;51.444;7.460;2023-06-14T14:45:31;2.63;;;1.40;;
59054;SDS011;44845;51.444;7.460;2023-06-14T14:47:56;4.13;;;1.60;;
59054;SDS011;44845;51.444;7.460;2023-06-14T14:50:21;3.47;;;1.55;;
59054;SDS011;44845;51.444;7.460;2023-06-14T14:52:47;4.90;;;1.80;;
59054;SDS011;44845;51.444;7.460;2023-06-14T14:55:12;1.58;;;1.35;;
59054;SDS011;44845;51.444;7.460;2023-06-14T14:57:38;4.25;;;1.35;;
59054;SDS011;44845;51.444;7.460;2023-06-14T15:00:04;3.03;;;1.70;;
59054;SDS011;44845;51.444;7.460;2023-06-14T15:02:30;2.30;;;1.75;;